createdAt,value
2022-12-08T00:00:52.189Z,99904.09
2022-12-08T00:03:19.955Z,99910.69
2022-12-08T00:06:08.134Z,99898.22
2022-12-08T00:08:53.929Z,99899.06
2022-12-08T00:11:21.315Z,99906.56
2022-12-08T00:13:48.670Z,99888.34
2022-12-08T00:16:16.134Z,99894.91
2022-12-08T00:18:43.653Z,99891.63
2022-12-08T00:21:12.253Z,99898.25
2022-12-08T00:23:39.429Z,99878.41
2022-12-08T00:26:07.524Z,99884.19
2022-12-08T00:28:34.822Z,99885.75
2022-12-08T00:31:08.658Z,99884.19
2022-12-08T00:33:36.830Z,99882.47
2022-12-08T00:36:07.037Z,99868.41
2022-12-08T00:38:36.330Z,99865.13
2022-12-08T00:41:03.809Z,99884.13
2022-12-08T00:43:31.058Z,99870.13
2022-12-08T00:45:58.677Z,99872.59
2022-12-08T00:48:26.035Z,99870.97
2022-12-08T00:50:53.421Z,99870.91
2022-12-08T00:53:20.645Z,99861.88
2022-12-08T00:55:49.269Z,99866.78
2022-12-08T00:58:16.607Z,99870.06
2022-12-08T01:00:44.396Z,99870.97
2022-12-08T01:03:12.709Z,99873.44
2022-12-08T01:05:40.001Z,99881.66
2022-12-08T01:08:08.264Z,99869.25
2022-12-08T01:10:36.347Z,99880.81
2022-12-08T01:13:05.526Z,99870.06
2022-12-08T01:15:32.753Z,99878.41
2022-12-08T01:17:59.956Z,99881.63
2022-12-08T01:20:28.175Z,99865.16
2022-12-08T01:22:55.643Z,99874.19
2022-12-08T01:25:22.940Z,99872.56
2022-12-08T01:27:52.505Z,99883.38
2022-12-08T01:30:21.543Z,99868.44
2022-12-08T01:32:48.842Z,99865.94
2022-12-08T01:35:16.777Z,99865.16
2022-12-08T01:37:43.984Z,99862.72
2022-12-08T01:40:11.597Z,99866.84
2022-12-08T01:42:40.296Z,99873.38
2022-12-08T01:45:13.652Z,99857.75
2022-12-08T01:47:45.522Z,99865.25
2022-12-08T01:50:15.772Z,99857.09
2022-12-08T01:52:49.094Z,99865.25
2022-12-08T01:55:20.450Z,99856.19
2022-12-08T01:57:50.912Z,99868.63
2022-12-08T02:00:21.779Z,99860.38
2022-12-08T02:02:54.590Z,99878.59
2022-12-08T02:05:26.821Z,99864.56
2022-12-08T02:07:55.841Z,99864.56
2022-12-08T02:10:25.000Z,99864.56
2022-12-08T02:12:56.314Z,99872.00
2022-12-08T02:15:32.461Z,99857.09
2022-12-08T02:18:15.015Z,99846.41
2022-12-08T02:20:52.260Z,99825.06
2022-12-08T02:23:31.101Z,99836.56
2022-12-08T02:26:37.549Z,99855.41
2022-12-08T02:29:46.042Z,99838.94
2022-12-08T02:32:40.144Z,99846.38
2022-12-08T02:35:12.130Z,99838.13
2022-12-08T02:37:43.440Z,99838.16
2022-12-08T02:40:16.618Z,99834.81
2022-12-08T02:42:48.732Z,99833.19
2022-12-08T02:45:22.772Z,99828.31
2022-12-08T02:47:50.277Z,99827.47
2022-12-08T02:50:19.556Z,99838.97
2022-12-08T02:52:48.104Z,99826.59
2022-12-08T02:55:25.469Z,99829.88
2022-12-08T02:58:11.132Z,99819.16
2022-12-08T03:00:53.638Z,99821.63
2022-12-08T03:03:34.308Z,99830.78
2022-12-08T03:06:08.406Z,99821.69
2022-12-08T03:08:42.402Z,99808.41
2022-12-08T03:11:20.507Z,99806.75
2022-12-08T03:13:51.957Z,99821.63
2022-12-08T03:16:23.985Z,99802.63
2022-12-08T03:18:56.509Z,99815.09
2022-12-08T03:21:26.399Z,99800.97
2022-12-08T03:23:56.551Z,99800.31
2022-12-08T03:26:30.363Z,99800.22
2022-12-08T03:28:58.241Z,99811.78
2022-12-08T03:31:29.412Z,99800.16
2022-12-08T03:33:58.700Z,99790.25
2022-12-08T03:36:28.061Z,99786.91
2022-12-08T03:38:55.456Z,99799.31
2022-12-08T03:41:23.264Z,99786.03
2022-12-08T03:43:52.942Z,99786.94
2022-12-08T03:48:48.613Z,99769.66
2022-12-08T03:51:16.523Z,99791.03
2022-12-08T03:53:45.624Z,99778.75
2022-12-08T03:56:17.319Z,99768.00
2022-12-08T03:58:44.820Z,99776.19
2022-12-08T04:01:12.561Z,99773.78
2022-12-08T04:03:39.956Z,99768.00
2022-12-08T04:06:07.643Z,99771.28
2022-12-08T04:08:35.435Z,99765.47
2022-12-08T04:11:04.331Z,99775.34
2022-12-08T04:13:31.580Z,99767.09
2022-12-08T04:15:58.916Z,99752.16
2022-12-08T04:18:26.436Z,99757.13
2022-12-08T04:20:53.953Z,99750.59
2022-12-08T04:23:21.264Z,99758.03
2022-12-08T04:25:48.687Z,99762.94
2022-12-08T04:28:17.568Z,99758.75
2022-12-08T04:30:44.979Z,99761.25
2022-12-08T04:33:12.185Z,99772.91
2022-12-08T04:35:39.547Z,99768.78
2022-12-08T04:38:06.823Z,99773.81
2022-12-08T04:40:34.174Z,99766.38
2022-12-08T04:43:01.479Z,99764.78
2022-12-08T04:45:30.553Z,99758.16
2022-12-08T04:47:58.705Z,99775.59
2022-12-08T04:50:26.020Z,99787.13
2022-12-08T04:52:53.797Z,99773.19
2022-12-08T04:55:21.141Z,99767.38
2022-12-08T04:57:48.394Z,99758.25
2022-12-08T05:00:16.795Z,99754.88
2022-12-08T05:02:45.589Z,99761.47
2022-12-08T05:05:12.952Z,99744.16
2022-12-08T05:07:40.330Z,99756.53
2022-12-08T05:10:08.680Z,99754.94
2022-12-08T05:12:35.853Z,99759.06
2022-12-08T05:15:03.464Z,99755.72
2022-12-08T05:17:31.747Z,99759.06
2022-12-08T05:20:00.439Z,99744.97
2022-12-08T05:22:27.841Z,99751.63
2022-12-08T05:24:55.051Z,99741.75
2022-12-08T05:27:22.285Z,99754.94
2022-12-08T05:29:50.294Z,99753.22
2022-12-08T05:32:17.790Z,99740.09
2022-12-08T05:34:45.181Z,99748.19
2022-12-08T05:37:13.875Z,99755.63
2022-12-08T05:39:42.479Z,99756.47
2022-12-08T05:42:09.862Z,99759.84
2022-12-08T05:44:37.275Z,99746.63
2022-12-08T05:47:04.680Z,99752.41
2022-12-08T05:49:31.995Z,99762.38
2022-12-08T05:51:59.214Z,99753.28
2022-12-08T05:54:27.760Z,99749.16
2022-12-08T05:56:55.100Z,99757.41
2022-12-08T05:59:22.389Z,99765.63
2022-12-08T06:01:49.859Z,99764.84
2022-12-08T06:04:17.081Z,99759.91
2022-12-08T06:06:44.269Z,99765.59
2022-12-08T06:09:12.613Z,99763.22
2022-12-08T06:11:41.259Z,99744.97
2022-12-08T06:14:11.322Z,99752.53
2022-12-08T06:16:38.881Z,99756.69
2022-12-08T06:19:06.299Z,99744.34
2022-12-08T06:21:33.698Z,99746.69
2022-12-08T06:24:01.189Z,99758.19
2022-12-08T06:26:29.135Z,99746.63
2022-12-08T06:28:58.007Z,99749.91
2022-12-08T06:31:26.700Z,99749.03
2022-12-08T06:33:55.164Z,99746.53
2022-12-08T06:36:24.114Z,99748.25
2022-12-08T06:38:51.926Z,99745.81
2022-12-08T06:41:19.371Z,99749.94
2022-12-08T06:43:47.016Z,99744.13
2022-12-08T06:46:17.594Z,99744.91
2022-12-08T06:48:44.954Z,99738.28
2022-12-08T06:51:14.544Z,99749.78
2022-12-08T06:53:42.894Z,99745.63
2022-12-08T06:56:11.212Z,99750.66
2022-12-08T06:58:38.943Z,99745.69
2022-12-08T07:01:08.731Z,99758.09
2022-12-08T07:03:38.293Z,99758.09
2022-12-08T07:06:06.706Z,99767.25
2022-12-08T07:08:35.103Z,99746.56
2022-12-08T07:11:07.803Z,99742.41
2022-12-08T07:13:35.238Z,99741.53
2022-12-08T07:16:06.003Z,99732.41
2022-12-08T07:18:33.334Z,99751.50
2022-12-08T07:21:05.495Z,99753.16
2022-12-08T07:23:33.227Z,99754.81
2022-12-08T07:26:02.073Z,99746.53
2022-12-08T07:28:30.890Z,99768.81
2022-12-08T07:30:58.179Z,99759.69
2022-12-08T07:33:25.530Z,99752.25
2022-12-08T07:35:56.501Z,99757.97
2022-12-08T07:38:25.942Z,99752.16
2022-12-08T07:40:54.087Z,99735.44
2022-12-08T07:43:22.052Z,99741.28
2022-12-08T07:45:50.234Z,99738.72
2022-12-08T07:48:18.064Z,99732.91
2022-12-08T07:50:46.168Z,99745.34
2022-12-08T07:53:14.168Z,99735.41
2022-12-08T07:55:43.770Z,99730.41
2022-12-08T07:58:11.332Z,99709.03
2022-12-08T08:00:39.205Z,99725.41
2022-12-08T08:03:08.949Z,99717.03
2022-12-08T08:05:36.324Z,99719.53
2022-12-08T08:08:04.114Z,99722.78
2022-12-08T08:10:31.596Z,99724.41
2022-12-08T08:13:00.800Z,99716.97
2022-12-08T08:15:28.826Z,99717.06
2022-12-08T08:17:56.472Z,99706.31
2022-12-08T08:20:23.748Z,99703.66
2022-12-08T08:22:51.709Z,99700.38
2022-12-08T08:25:22.622Z,99713.53
2022-12-08T08:27:50.449Z,99696.97
2022-12-08T08:30:20.938Z,99704.50
2022-12-08T08:32:48.952Z,99690.31
2022-12-08T08:35:16.699Z,99688.63
2022-12-08T08:37:48.549Z,99704.31
2022-12-08T08:40:16.803Z,99705.06
2022-12-08T08:42:44.062Z,99720.66
2022-12-08T08:45:11.947Z,99690.91
2022-12-08T08:47:40.744Z,99719.94
2022-12-08T08:50:08.774Z,99701.69
2022-12-08T08:52:36.302Z,99694.19
2022-12-08T08:55:03.939Z,99699.91
2022-12-08T08:57:31.629Z,99702.28
2022-12-08T08:59:59.210Z,99707.16
2022-12-08T09:02:26.725Z,99705.53
2022-12-08T09:04:55.537Z,99705.53
2022-12-08T09:07:23.019Z,99699.66
2022-12-08T09:09:50.367Z,99695.47
2022-12-08T09:12:17.677Z,99705.41
2022-12-08T09:14:45.997Z,99702.03
2022-12-08T09:17:13.741Z,99693.75
2022-12-08T09:19:41.088Z,99703.66
2022-12-08T09:22:09.811Z,99696.97
2022-12-08T09:24:37.044Z,99701.88
2022-12-08T09:27:04.603Z,99695.41
2022-12-08T09:29:35.985Z,99690.38
2022-12-08T09:32:04.013Z,99692.00
2022-12-08T09:34:32.001Z,99691.16
2022-12-08T09:37:00.152Z,99685.31
2022-12-08T09:39:29.142Z,99688.69
2022-12-08T09:42:00.167Z,99693.66
2022-12-08T09:44:49.493Z,99687.97
2022-12-08T09:47:22.854Z,99680.44
2022-12-08T09:49:58.255Z,99667.31
2022-12-08T09:52:30.320Z,99683.75
2022-12-08T09:55:04.001Z,99690.38
2022-12-08T09:57:32.193Z,99687.88
2022-12-08T10:00:04.845Z,99680.44
2022-12-08T10:02:33.731Z,99676.19
2022-12-08T10:05:01.142Z,99678.56
2022-12-08T10:07:38.627Z,99686.00
2022-12-08T10:10:21.041Z,99666.88
2022-12-08T10:12:54.452Z,99677.53
2022-12-08T10:15:40.235Z,99679.94
2022-12-08T10:18:14.999Z,99682.41
2022-12-08T10:20:44.443Z,99638.75
2022-12-08T10:23:22.870Z,99674.13
2022-12-08T10:25:57.831Z,99672.34
2022-12-08T10:28:25.092Z,99696.34
2022-12-08T10:30:52.541Z,99680.63
2022-12-08T10:33:21.708Z,99676.56
2022-12-08T10:35:50.724Z,99688.06
2022-12-08T10:38:21.383Z,99680.72
2022-12-08T10:40:50.360Z,99681.38
2022-12-08T10:43:23.029Z,99695.44
2022-12-08T10:45:50.313Z,99703.63
2022-12-08T10:48:20.454Z,99683.59
2022-12-08T10:50:53.344Z,99681.97
2022-12-08T10:53:23.289Z,99692.72
2022-12-08T10:55:51.642Z,99684.44
2022-12-08T10:58:34.132Z,99675.34
2022-12-08T11:01:06.296Z,99679.41
2022-12-08T11:03:37.218Z,99688.56
2022-12-08T11:06:13.494Z,99684.44
2022-12-08T11:08:48.279Z,99676.94
2022-12-08T11:11:16.414Z,99671.09
2022-12-08T11:13:50.301Z,99667.78
2022-12-08T11:16:19.760Z,99663.63
2022-12-08T11:18:56.494Z,99662.81
2022-12-08T11:21:33.678Z,99674.28
2022-12-08T11:24:19.215Z,99668.59
2022-12-08T11:26:51.606Z,99670.88
2022-12-08T11:29:20.628Z,99669.19
2022-12-08T11:31:53.529Z,99665.13
2022-12-08T11:34:34.202Z,99651.94
2022-12-08T11:37:04.476Z,99670.09
2022-12-08T11:39:34.495Z,99654.59
2022-12-08T11:42:03.930Z,99661.03
2022-12-08T11:44:38.678Z,99677.56
2022-12-08T11:47:13.219Z,99672.69
2022-12-08T11:49:42.701Z,99660.16
2022-12-08T11:52:20.406Z,99665.03
2022-12-08T11:54:53.335Z,99676.63
2022-12-08T11:57:24.419Z,99672.47
2022-12-08T11:59:56.344Z,99657.56
2022-12-08T12:02:25.602Z,99660.75
2022-12-08T12:04:56.523Z,99670.63
2022-12-08T12:07:40.206Z,99670.63
2022-12-08T12:10:25.498Z,99673.91
2022-12-08T12:13:05.342Z,99682.19
2022-12-08T12:16:15.988Z,99682.06
2022-12-08T12:18:46.694Z,99675.38
2022-12-08T12:21:20.014Z,99668.72
2022-12-08T12:23:53.271Z,99655.91
2022-12-08T12:26:23.123Z,99685.25
2022-12-08T12:28:55.644Z,99684.38
2022-12-08T12:31:27.011Z,99677.00
2022-12-08T12:33:57.215Z,99685.19
2022-12-08T12:36:25.695Z,99682.66
2022-12-08T12:39:01.579Z,99685.25
2022-12-08T12:41:34.390Z,99684.44
2022-12-08T12:44:36.725Z,99686.03
2022-12-08T12:47:11.360Z,99690.06
2022-12-08T12:50:07.194Z,99705.66
2022-12-08T12:52:48.494Z,99698.22
2022-12-08T12:55:44.969Z,99704.00
2022-12-08T12:58:48.929Z,99708.13
2022-12-08T13:01:45.848Z,99712.06
2022-12-08T13:04:14.612Z,99710.34
2022-12-08T13:06:45.832Z,99717.00
2022-12-08T13:09:28.198Z,99718.59
2022-12-08T13:11:58.255Z,99713.63
2022-12-08T13:14:31.636Z,99705.44
2022-12-08T13:17:01.675Z,99693.09
2022-12-08T13:19:33.223Z,99723.41
2022-12-08T13:22:01.265Z,99718.34
2022-12-08T13:24:33.072Z,99715.97
2022-12-08T13:27:34.222Z,99707.66
2022-12-08T13:30:42.471Z,99712.56
2022-12-08T13:33:18.136Z,99710.13
2022-12-08T13:35:54.007Z,99707.53
2022-12-08T13:38:26.551Z,99689.44
2022-12-08T13:40:56.065Z,99709.22
2022-12-08T13:43:44.654Z,99709.22
2022-12-08T13:57:34.830Z,99691.81
2022-12-08T14:00:04.796Z,99701.59
2022-12-08T14:02:48.218Z,99702.41
2022-12-08T14:05:19.381Z,99700.78
2022-12-08T14:07:53.617Z,99707.31
2022-12-08T14:10:24.763Z,99703.19
2022-12-08T14:12:59.469Z,99710.63
2022-12-08T14:15:30.217Z,99700.78
2022-12-08T14:18:01.547Z,99712.25
2022-12-08T14:20:30.256Z,99724.69
2022-12-08T14:22:59.842Z,99714.75
2022-12-08T14:25:28.307Z,99720.59
2022-12-08T14:27:59.315Z,99718.03
2022-12-08T14:30:31.021Z,99726.25
2022-12-08T14:33:00.233Z,99729.56
2022-12-08T14:35:28.999Z,99729.41
2022-12-08T14:38:00.575Z,99739.25
2022-12-08T14:40:32.823Z,99729.31
2022-12-08T14:43:14.381Z,99743.22
2022-12-08T14:45:47.896Z,99728.06
2022-12-08T14:48:23.576Z,99741.50
2022-12-08T14:51:21.852Z,99732.38
2022-12-08T14:53:55.413Z,99718.41
2022-12-08T14:56:28.669Z,99707.19
2022-12-08T14:59:12.069Z,99737.53
2022-12-08T15:01:42.125Z,99729.03
2022-12-08T15:04:16.794Z,99745.56
2022-12-08T15:06:52.784Z,99762.09
2022-12-08T15:09:32.324Z,99749.53
2022-12-08T15:12:04.135Z,99762.72
2022-12-08T15:14:33.416Z,99765.97
2022-12-08T15:17:01.387Z,99763.44
2022-12-08T15:19:30.772Z,99768.50
2022-12-08T15:22:17.743Z,99779.22
2022-12-08T15:24:46.686Z,99779.22
2022-12-08T15:27:18.569Z,99776.66
2022-12-08T15:29:47.130Z,99772.56
2022-12-08T15:32:18.814Z,99784.84
2022-12-08T15:34:46.150Z,99783.97
2022-12-08T15:37:20.617Z,99783.16
2022-12-08T15:39:49.765Z,99790.53
2022-12-08T15:42:17.307Z,99783.16
2022-12-08T15:44:44.776Z,99782.13
2022-12-08T15:47:16.864Z,99788.78
2022-12-08T15:49:44.692Z,99783.66
2022-12-08T15:52:14.770Z,99771.41
2022-12-08T15:54:41.936Z,99782.78
2022-12-08T15:57:29.991Z,99780.31
2022-12-08T16:00:50.731Z,99786.88
2022-12-08T16:03:51.604Z,99791.66
2022-12-08T16:09:11.699Z,99798.28
2022-12-08T16:12:08.564Z,99788.38
2022-12-08T16:17:33.153Z,99780.06
2022-12-08T16:20:00.965Z,99792.47
2022-12-08T16:22:52.797Z,99779.34
2022-12-08T16:25:21.362Z,99802.44
2022-12-08T16:28:29.468Z,99788.31
2022-12-08T16:30:40.238Z,99801.53
2022-12-08T16:33:07.994Z,99801.53
2022-12-08T16:35:35.470Z,99794.00
2022-12-08T16:38:02.968Z,99794.81
2022-12-08T16:40:30.706Z,99800.63
2022-12-08T16:42:58.470Z,99791.50
2022-12-08T16:45:28.016Z,99793.94
2022-12-08T16:47:58.841Z,99798.91
2022-12-08T16:50:28.114Z,99793.16
2022-12-08T16:52:57.616Z,99798.03
2022-12-08T16:55:24.855Z,99794.75
2022-12-08T16:57:52.742Z,99789.72
2022-12-08T17:00:23.109Z,99796.13
2022-12-08T17:02:51.287Z,99784.78
2022-12-08T17:05:22.584Z,99780.72
2022-12-08T17:07:52.253Z,99776.63
2022-12-08T17:10:23.030Z,99779.78
2022-12-08T17:12:50.546Z,99787.97
2022-12-08T17:15:20.437Z,99781.31
2022-12-08T17:17:47.908Z,99784.63
2022-12-08T17:20:16.943Z,99782.97
2022-12-08T17:22:46.345Z,99787.91
2022-12-08T17:25:14.128Z,99785.34
2022-12-08T17:27:42.439Z,99783.78
2022-12-08T17:30:11.942Z,99786.28
2022-12-08T17:32:39.275Z,99792.97
2022-12-08T17:35:07.668Z,99800.50
2022-12-08T17:37:35.241Z,99808.75
2022-12-08T17:40:05.415Z,99805.38
2022-12-08T17:42:32.844Z,99809.53
2022-12-08T17:45:00.152Z,99809.63
2022-12-08T17:47:27.516Z,99813.00
2022-12-08T17:49:56.169Z,99806.34
2022-12-08T17:52:23.465Z,99799.66
2022-12-08T17:54:50.763Z,99799.59
2022-12-08T17:57:19.557Z,99810.44
2022-12-08T17:59:46.829Z,99814.50
2022-12-08T18:02:14.214Z,99813.63
2022-12-08T18:04:41.440Z,99822.78
2022-12-08T18:07:08.823Z,99821.13
2022-12-08T18:09:36.260Z,99820.28
2022-12-08T18:12:03.723Z,99830.16
2022-12-08T18:14:32.439Z,99826.84
2022-12-08T18:17:00.107Z,99824.38
2022-12-08T18:19:28.032Z,99835.97
2022-12-08T18:21:55.259Z,99831.81
2022-12-08T18:24:23.983Z,99839.16
2022-12-08T18:26:55.389Z,99827.53
2022-12-08T18:29:23.857Z,99823.53
2022-12-08T18:31:53.079Z,99822.59
2022-12-08T18:34:20.606Z,99830.88
2022-12-08T18:36:48.744Z,99832.56
2022-12-08T18:39:24.905Z,99835.91
2022-12-08T18:41:52.604Z,99817.09
2022-12-08T18:44:20.090Z,99840.16
2022-12-08T18:46:47.685Z,99833.56
2022-12-08T18:49:19.332Z,99837.72
2022-12-08T18:51:48.616Z,99836.69
2022-12-08T18:54:22.004Z,99831.50
2022-12-08T18:56:51.811Z,99824.81
2022-12-08T18:59:20.463Z,99828.13
2022-12-08T19:01:48.407Z,99831.44
2022-12-08T19:04:28.283Z,99834.75
2022-12-08T19:06:56.720Z,99838.88
2022-12-08T19:09:28.539Z,99839.69
2022-12-08T19:11:56.554Z,99851.25
2022-12-08T19:14:28.185Z,99850.47
2022-12-08T19:16:56.591Z,99838.88
2022-12-08T19:19:25.576Z,99826.53
2022-12-08T19:21:54.354Z,99836.38
2022-12-08T19:24:22.204Z,99848.81
2022-12-08T19:26:49.840Z,99843.84
2022-12-08T19:29:17.526Z,99845.47
2022-12-08T19:31:45.640Z,99844.53
2022-12-08T19:34:14.084Z,99843.75
2022-12-08T19:36:43.163Z,99852.88
2022-12-08T19:39:34.158Z,99845.38
2022-12-08T19:42:20.544Z,99842.09
2022-12-08T19:44:54.014Z,99845.28
2022-12-08T19:47:23.021Z,99848.47
2022-12-08T19:49:50.526Z,99850.22
2022-12-08T19:52:19.130Z,99858.44
2022-12-08T19:54:47.340Z,99851.03
2022-12-08T19:57:14.820Z,99852.63
2022-12-08T19:59:42.068Z,99851.03
2022-12-08T20:02:11.067Z,99844.41
2022-12-08T20:04:38.513Z,99840.31
2022-12-08T20:07:05.796Z,99837.81
2022-12-08T20:09:34.444Z,99839.44
2022-12-08T20:12:01.939Z,99843.59
2022-12-08T20:14:29.154Z,99837.69
2022-12-08T20:16:56.617Z,99848.44
2022-12-08T20:19:23.846Z,99848.47
2022-12-08T20:21:51.184Z,99850.84
2022-12-08T20:24:18.695Z,99855.78
2022-12-08T20:26:47.411Z,99856.63
2022-12-08T20:29:17.087Z,99848.28
2022-12-08T20:31:44.652Z,99857.22
2022-12-08T20:34:15.273Z,99853.13
2022-12-08T20:36:43.157Z,99853.97
2022-12-08T20:39:12.721Z,99829.31
2022-12-08T20:41:39.980Z,99845.56
2022-12-08T20:44:09.276Z,99839.81
2022-12-08T20:46:37.032Z,99844.75
2022-12-08T20:49:05.192Z,99848.03
2022-12-08T20:51:33.537Z,99840.59
2022-12-08T20:54:01.291Z,99837.38
2022-12-08T20:56:28.632Z,99847.91
2022-12-08T20:58:56.239Z,99848.69
2022-12-08T21:01:25.638Z,99848.63
2022-12-08T21:03:53.211Z,99846.19
2022-12-08T21:06:22.525Z,99853.59
2022-12-08T21:08:50.818Z,99858.53
2022-12-08T21:11:18.381Z,99849.31
2022-12-08T21:13:46.872Z,99857.53
2022-12-08T21:16:16.062Z,99840.09
2022-12-08T21:18:44.919Z,99840.78
2022-12-08T21:21:14.445Z,99849.06
2022-12-08T21:23:43.200Z,99831.66
2022-12-08T21:26:13.096Z,99833.19
2022-12-08T21:28:40.790Z,99831.50
2022-12-08T21:31:09.176Z,99833.97
2022-12-08T21:33:37.095Z,99839.81
2022-12-08T21:36:09.533Z,99837.66
2022-12-08T21:38:37.841Z,99850.75
2022-12-08T21:41:06.918Z,99849.94
2022-12-08T21:43:34.526Z,99859.94
2022-12-08T21:46:02.120Z,99864.19
2022-12-08T21:48:29.607Z,99858.44
2022-12-08T21:50:57.177Z,99867.50
2022-12-08T21:53:26.579Z,99854.13
2022-12-08T21:55:54.106Z,99854.00
2022-12-08T21:58:21.577Z,99853.97
2022-12-08T22:00:48.943Z,99859.66
2022-12-08T22:03:16.660Z,99857.97
2022-12-08T22:05:44.119Z,99863.75
2022-12-08T22:08:11.614Z,99855.44
2022-12-08T22:10:40.764Z,99853.69
2022-12-08T22:13:08.038Z,99858.66
2022-12-08T22:15:35.377Z,99858.69
2022-12-08T22:18:02.710Z,99867.63
2022-12-08T22:20:30.423Z,99867.50
2022-12-08T22:22:57.865Z,99868.31
2022-12-08T22:25:25.345Z,99883.28
2022-12-08T22:27:54.390Z,99857.47
2022-12-08T22:30:21.853Z,99872.44
2022-12-08T22:32:49.269Z,99868.31
2022-12-08T22:35:16.692Z,99866.66
2022-12-08T22:37:47.367Z,99875.06
2022-12-08T22:40:14.990Z,99876.66
2022-12-08T22:42:42.291Z,99877.44
2022-12-08T22:45:12.054Z,99866.66
2022-12-08T22:47:39.469Z,99873.13
2022-12-08T22:50:08.019Z,99871.38
2022-12-08T22:52:35.671Z,99872.09
2022-12-08T22:55:03.365Z,99884.53
2022-12-08T22:57:30.913Z,99881.19
2022-12-08T22:59:58.553Z,99879.47
2022-12-08T23:02:27.385Z,99877.69
2022-12-08T23:04:59.232Z,99869.53
2022-12-08T23:07:26.549Z,99876.91
2022-12-08T23:09:54.122Z,99870.16
2022-12-08T23:12:21.709Z,99865.22
2022-12-08T23:14:49.127Z,99876.03
2022-12-08T23:17:16.574Z,99879.38
2022-12-08T23:19:45.421Z,99876.03
2022-12-08T23:22:12.637Z,99875.22
2022-12-08T23:24:40.014Z,99873.47
2022-12-08T23:27:07.772Z,99880.94
2022-12-08T23:29:35.398Z,99880.22
2022-12-08T23:32:03.387Z,99875.22
2022-12-08T23:34:30.865Z,99870.81
2022-12-08T23:36:59.658Z,99879.25
2022-12-08T23:39:27.010Z,99879.19
2022-12-08T23:41:54.303Z,99882.56
2022-12-08T23:44:21.910Z,99885.91
2022-12-08T23:46:49.631Z,99884.19
2022-12-08T23:49:17.129Z,99883.31
2022-12-08T23:51:44.731Z,99880.78
2022-12-08T23:54:13.791Z,99884.13
2022-12-08T23:56:41.308Z,99884.91
2022-12-08T23:59:08.643Z,99888.97
